createdAt,value
2023-03-21T00:00:57.866Z,2.03
2023-03-21T00:03:27.621Z,1.77
2023-03-21T00:05:55.881Z,2.15
2023-03-21T00:08:26.452Z,2.10
2023-03-21T00:11:01.205Z,2.22
2023-03-21T00:13:33.158Z,1.85
2023-03-21T00:16:10.461Z,2.20
2023-03-21T00:18:47.040Z,2.10
2023-03-21T00:24:07.490Z,2.38
2023-03-21T00:26:38.295Z,2.25
2023-03-21T00:29:06.858Z,1.80
2023-03-21T00:31:35.452Z,2.17
2023-03-21T00:34:03.994Z,2.08
2023-03-21T00:36:32.521Z,2.20
2023-03-21T00:39:01.571Z,2.28
2023-03-21T00:41:45.321Z,2.05
2023-03-21T00:44:16.020Z,1.77
2023-03-21T00:47:00.535Z,2.05
2023-03-21T00:49:34.417Z,1.80
2023-03-21T00:52:15.742Z,1.92
2023-03-21T00:54:47.249Z,2.00
2023-03-21T00:57:15.470Z,2.10
2023-03-21T00:59:44.950Z,1.92
2023-03-21T01:02:15.110Z,2.33
2023-03-21T01:04:43.839Z,2.63
2023-03-21T01:07:12.419Z,2.42
2023-03-21T01:09:40.970Z,2.13
2023-03-21T01:12:09.203Z,1.98
2023-03-21T01:14:37.962Z,1.80
2023-03-21T01:17:07.845Z,2.28
2023-03-21T01:19:50.777Z,1.73
2023-03-21T01:22:20.016Z,2.00
2023-03-21T01:25:05.629Z,1.92
2023-03-21T01:27:37.257Z,2.05
2023-03-21T01:30:17.458Z,2.33
2023-03-21T01:32:49.588Z,2.03
2023-03-21T01:35:18.157Z,2.25
2023-03-21T01:37:46.446Z,2.38
2023-03-21T01:40:18.399Z,2.17
2023-03-21T01:42:46.472Z,1.90
2023-03-21T01:45:52.511Z,2.38
2023-03-21T01:48:24.570Z,2.55
2023-03-21T01:50:53.675Z,2.10
2023-03-21T01:53:23.501Z,2.35
2023-03-21T01:55:52.036Z,2.42
2023-03-21T01:58:21.170Z,2.20
2023-03-21T02:00:51.507Z,2.17
2023-03-21T02:03:35.014Z,2.42
2023-03-21T02:06:09.565Z,2.30
2023-03-21T02:08:39.906Z,2.20
2023-03-21T02:11:09.928Z,2.53
2023-03-21T02:13:38.501Z,2.50
2023-03-21T02:16:13.982Z,2.60
2023-03-21T02:18:52.980Z,2.70
2023-03-21T02:21:56.942Z,2.42
2023-03-21T02:24:40.027Z,2.13
2023-03-21T02:27:16.254Z,2.50
2023-03-21T02:30:26.572Z,2.90
2023-03-21T02:33:17.665Z,3.08
2023-03-21T02:36:13.665Z,2.53
2023-03-21T02:38:54.368Z,2.85
2023-03-21T02:41:38.267Z,2.40
2023-03-21T02:44:13.270Z,2.70
2023-03-21T02:46:56.373Z,2.90
2023-03-21T02:49:32.066Z,2.47
2023-03-21T02:52:12.283Z,2.90
2023-03-21T02:54:48.936Z,2.47
2023-03-21T02:57:19.892Z,2.40
2023-03-21T02:59:55.584Z,2.85
2023-03-21T03:02:29.917Z,2.47
2023-03-21T03:04:58.915Z,2.95
2023-03-21T03:07:38.636Z,2.60
2023-03-21T03:10:28.549Z,2.90
2023-03-21T03:13:07.185Z,2.60
2023-03-21T03:15:46.149Z,2.72
2023-03-21T03:18:24.073Z,2.40
2023-03-21T03:21:01.972Z,2.78
2023-03-21T03:23:37.508Z,2.83
2023-03-21T03:26:10.543Z,2.80
2023-03-21T03:28:42.653Z,2.53
2023-03-21T03:31:16.067Z,2.92
2023-03-21T03:33:49.338Z,2.72
2023-03-21T03:36:31.215Z,2.70
2023-03-21T03:39:05.048Z,2.70
2023-03-21T03:44:28.983Z,2.45
2023-03-21T03:47:02.454Z,2.50
2023-03-21T03:49:36.852Z,2.65
2023-03-21T03:52:11.362Z,2.65
2023-03-21T03:54:42.387Z,2.60
2023-03-21T03:57:14.325Z,2.97
2023-03-21T03:59:45.128Z,2.50
2023-03-21T04:02:13.702Z,2.33
2023-03-21T04:04:43.329Z,2.33
2023-03-21T04:07:11.654Z,2.72
2023-03-21T04:09:44.618Z,2.40
2023-03-21T04:12:15.562Z,2.80
2023-03-21T04:14:46.083Z,2.50
2023-03-21T04:17:17.081Z,2.92
2023-03-21T04:19:46.313Z,2.63
2023-03-21T04:22:15.525Z,3.00
2023-03-21T04:24:43.605Z,2.30
2023-03-21T04:27:12.171Z,2.58
2023-03-21T04:29:41.953Z,2.83
2023-03-21T04:32:20.296Z,2.97
2023-03-21T04:34:50.731Z,2.85
2023-03-21T04:37:19.791Z,3.15
2023-03-21T04:39:48.617Z,2.95
2023-03-21T04:42:18.585Z,3.08
2023-03-21T04:44:49.570Z,3.03
2023-03-21T04:47:20.789Z,2.53
2023-03-21T04:49:50.168Z,3.00
2023-03-21T04:52:18.632Z,3.20
2023-03-21T04:54:47.282Z,3.10
2023-03-21T04:57:15.389Z,3.08
2023-03-21T04:59:44.075Z,2.95
2023-03-21T05:02:14.081Z,2.95
2023-03-21T05:04:42.536Z,2.83
2023-03-21T05:07:10.615Z,3.38
2023-03-21T05:09:39.441Z,2.70
2023-03-21T05:12:07.831Z,2.88
2023-03-21T05:14:38.696Z,3.10
2023-03-21T05:17:07.284Z,2.80
2023-03-21T05:19:37.210Z,3.13
2023-03-21T05:22:07.606Z,3.05
2023-03-21T05:24:37.854Z,3.15
2023-03-21T05:27:06.666Z,2.92
2023-03-21T05:29:35.103Z,2.95
2023-03-21T05:32:04.032Z,3.10
2023-03-21T05:34:33.618Z,2.60
2023-03-21T05:37:03.541Z,2.58
2023-03-21T05:39:31.597Z,3.20
2023-03-21T05:42:00.152Z,2.65
2023-03-21T05:44:28.438Z,2.80
2023-03-21T05:46:56.988Z,2.83
2023-03-21T05:49:27.006Z,3.00
2023-03-21T05:51:55.139Z,2.90
2023-03-21T05:54:24.649Z,2.63
2023-03-21T05:56:53.246Z,3.35
2023-03-21T05:59:21.384Z,2.92
2023-03-21T06:01:49.558Z,2.67
2023-03-21T06:04:17.834Z,2.80
2023-03-21T06:06:46.065Z,2.75
2023-03-21T06:09:15.291Z,2.70
2023-03-21T06:11:51.820Z,3.10
2023-03-21T06:14:20.924Z,2.90
2023-03-21T06:16:49.033Z,3.55
2023-03-21T06:19:17.621Z,2.88
2023-03-21T06:21:45.840Z,2.50
2023-03-21T06:24:14.420Z,2.40
2023-03-21T06:26:43.879Z,2.85
2023-03-21T06:29:12.433Z,3.00
2023-03-21T06:31:41.272Z,2.85
2023-03-21T06:34:11.268Z,3.58
2023-03-21T06:36:40.183Z,3.28
2023-03-21T06:39:08.805Z,3.50
2023-03-21T06:41:37.519Z,2.78
2023-03-21T06:44:06.966Z,3.35
2023-03-21T06:46:35.554Z,2.90
2023-03-21T06:49:04.474Z,3.42
2023-03-21T06:51:32.614Z,3.30
2023-03-21T06:54:01.152Z,3.17
2023-03-21T06:56:29.220Z,3.38
2023-03-21T06:58:57.370Z,3.13
2023-03-21T07:01:27.788Z,3.30
2023-03-21T07:03:57.228Z,3.70
2023-03-21T07:06:26.518Z,3.47
2023-03-21T07:08:55.693Z,4.05
2023-03-21T07:11:24.226Z,3.80
2023-03-21T07:13:52.782Z,3.35
2023-03-21T07:16:22.341Z,3.58
2023-03-21T07:18:52.208Z,3.50
2023-03-21T07:21:20.313Z,3.75
2023-03-21T07:23:50.922Z,3.70
2023-03-21T07:26:19.338Z,3.65
2023-03-21T07:28:47.899Z,3.50
2023-03-21T07:31:17.941Z,3.15
2023-03-21T07:33:46.344Z,3.22
2023-03-21T07:36:16.988Z,3.47
2023-03-21T07:38:46.374Z,3.58
2023-03-21T07:43:42.942Z,3.55
2023-03-21T07:46:11.284Z,3.53
2023-03-21T07:48:39.890Z,3.38
2023-03-21T07:51:08.499Z,3.47
2023-03-21T07:53:37.999Z,3.13
2023-03-21T07:56:07.284Z,3.30
2023-03-21T07:58:35.693Z,4.15
2023-03-21T08:01:03.897Z,3.40
2023-03-21T08:03:33.824Z,4.28
2023-03-21T08:06:02.156Z,4.20
2023-03-21T08:08:30.502Z,3.40
2023-03-21T08:11:00.117Z,3.28
2023-03-21T08:13:28.650Z,3.75
2023-03-21T08:15:57.385Z,3.45
2023-03-21T08:18:25.991Z,3.92
2023-03-21T08:20:55.137Z,3.00
2023-03-21T08:23:23.747Z,3.35
2023-03-21T08:25:53.549Z,3.65
2023-03-21T08:28:23.690Z,3.60
2023-03-21T08:30:51.879Z,3.85
2023-03-21T08:33:20.168Z,3.58
2023-03-21T08:35:48.886Z,3.15
2023-03-21T08:38:16.970Z,3.38
2023-03-21T08:40:45.632Z,3.28
2023-03-21T08:43:14.980Z,2.90
2023-03-21T08:45:45.030Z,2.88
2023-03-21T08:48:13.698Z,2.70
2023-03-21T08:50:41.852Z,2.72
2023-03-21T08:53:10.422Z,2.63
2023-03-21T08:55:38.726Z,2.60
2023-03-21T08:58:07.797Z,2.63
2023-03-21T09:00:36.401Z,2.50
2023-03-21T09:03:06.008Z,2.38
2023-03-21T09:05:34.648Z,2.70
2023-03-21T09:08:03.430Z,2.00
2023-03-21T09:10:32.394Z,2.63
2023-03-21T09:13:00.794Z,2.10
2023-03-21T09:15:30.335Z,2.35
2023-03-21T09:18:13.574Z,2.10
2023-03-21T09:20:44.375Z,2.50
2023-03-21T09:23:13.254Z,1.98
2023-03-21T09:25:42.776Z,2.55
2023-03-21T09:28:13.149Z,2.40
2023-03-21T09:30:42.053Z,2.55
2023-03-21T09:33:19.319Z,2.60
2023-03-21T09:35:51.819Z,2.50
2023-03-21T09:38:20.669Z,2.20
2023-03-21T09:41:01.839Z,2.40
2023-03-21T09:43:44.993Z,2.90
2023-03-21T09:46:24.529Z,2.47
2023-03-21T09:48:59.120Z,2.55
2023-03-21T09:51:34.336Z,3.30
2023-03-21T09:54:08.768Z,3.13
2023-03-21T09:56:39.587Z,2.60
2023-03-21T09:59:11.762Z,2.88
2023-03-21T10:01:45.929Z,3.00
2023-03-21T10:04:16.760Z,2.88
2023-03-21T10:06:51.293Z,3.28
2023-03-21T10:09:23.972Z,3.55
2023-03-21T10:11:55.213Z,3.10
2023-03-21T10:14:30.056Z,3.03
2023-03-21T10:17:01.783Z,2.70
2023-03-21T10:19:31.383Z,3.78
2023-03-21T10:22:03.030Z,3.33
2023-03-21T10:24:35.025Z,3.22
2023-03-21T10:27:05.889Z,3.38
2023-03-21T10:29:42.260Z,3.17
2023-03-21T10:32:13.032Z,3.20
2023-03-21T10:34:44.825Z,3.08
2023-03-21T10:37:17.246Z,3.00
2023-03-21T10:39:47.711Z,2.80
2023-03-21T10:42:21.917Z,3.33
2023-03-21T10:44:51.811Z,3.10
2023-03-21T10:47:22.697Z,3.40
2023-03-21T10:50:06.992Z,3.05
2023-03-21T10:52:39.550Z,3.05
2023-03-21T10:55:17.164Z,2.70
2023-03-21T10:57:46.453Z,3.17
2023-03-21T11:00:21.919Z,3.00
2023-03-21T11:02:52.019Z,2.78
2023-03-21T11:05:24.474Z,3.38
2023-03-21T11:08:07.389Z,2.90
2023-03-21T11:10:38.516Z,3.00
2023-03-21T11:13:09.739Z,3.22
2023-03-21T11:15:46.495Z,2.88
2023-03-21T11:18:18.898Z,3.00
2023-03-21T11:20:52.297Z,3.10
2023-03-21T11:23:23.241Z,3.40
2023-03-21T11:25:52.777Z,3.50
2023-03-21T11:28:23.891Z,3.20
2023-03-21T11:30:54.890Z,3.03
2023-03-21T11:33:25.256Z,3.00
2023-03-21T11:36:01.262Z,2.80
2023-03-21T11:38:33.474Z,3.05
2023-03-21T11:41:02.931Z,3.40
2023-03-21T11:43:33.025Z,2.58
2023-03-21T11:46:07.138Z,2.67
2023-03-21T11:48:41.120Z,2.85
2023-03-21T11:51:20.047Z,3.05
2023-03-21T11:53:59.943Z,2.80
2023-03-21T11:56:30.629Z,2.55
2023-03-21T11:59:27.446Z,3.10
2023-03-21T12:02:19.180Z,2.35
2023-03-21T12:04:54.091Z,2.30
2023-03-21T12:07:36.704Z,2.28
2023-03-21T12:10:23.665Z,2.88
2023-03-21T12:12:59.874Z,2.42
2023-03-21T12:15:34.946Z,2.72
2023-03-21T12:18:11.149Z,2.33
2023-03-21T12:20:43.534Z,2.30
2023-03-21T12:23:37.136Z,2.08
2023-03-21T12:26:20.263Z,2.03
2023-03-21T12:29:02.864Z,2.10
2023-03-21T12:31:41.115Z,2.17
2023-03-21T12:34:23.263Z,2.00
2023-03-21T12:37:09.404Z,1.90
2023-03-21T12:39:40.477Z,1.90
2023-03-21T12:42:32.208Z,1.65
2023-03-21T12:45:11.564Z,1.77
2023-03-21T12:47:48.737Z,1.70
2023-03-21T12:50:21.911Z,1.80
2023-03-21T12:52:54.051Z,1.45
2023-03-21T12:55:24.901Z,1.75
2023-03-21T12:58:01.579Z,1.55
2023-03-21T13:00:37.833Z,1.80
2023-03-21T13:03:12.896Z,1.90
2023-03-21T13:05:47.142Z,1.60
2023-03-21T13:08:19.473Z,1.50
2023-03-21T13:10:48.592Z,1.65
2023-03-21T13:13:23.814Z,1.42
2023-03-21T13:16:06.585Z,1.40
2023-03-21T13:18:44.997Z,1.50
2023-03-21T13:21:17.701Z,1.45
2023-03-21T13:24:00.566Z,1.65
2023-03-21T13:26:39.075Z,1.33
2023-03-21T13:29:25.361Z,1.40
2023-03-21T13:31:57.066Z,1.52
2023-03-21T13:34:27.247Z,1.48
2023-03-21T13:36:58.570Z,1.50
2023-03-21T13:39:29.632Z,1.67
2023-03-21T13:42:05.983Z,1.80
2023-03-21T13:44:43.388Z,1.50
2023-03-21T13:47:41.965Z,1.52
2023-03-21T13:50:28.813Z,1.80
2023-03-21T13:53:24.935Z,1.75
2023-03-21T13:56:24.735Z,1.40
2023-03-21T13:58:56.204Z,1.35
2023-03-21T14:01:32.395Z,1.38
2023-03-21T14:04:04.978Z,1.55
2023-03-21T14:06:37.756Z,1.40
2023-03-21T14:09:07.112Z,1.40
2023-03-21T14:11:38.391Z,1.70
2023-03-21T14:14:11.562Z,1.20
2023-03-21T14:16:41.977Z,1.80
2023-03-21T14:19:13.125Z,1.40
2023-03-21T14:21:50.254Z,1.30
2023-03-21T14:24:19.343Z,1.60
2023-03-21T14:26:50.377Z,1.25
2023-03-21T14:29:26.716Z,1.30
2023-03-21T14:31:57.575Z,1.35
2023-03-21T14:34:28.817Z,1.35
2023-03-21T14:36:58.774Z,1.60
2023-03-21T14:39:30.339Z,1.65
2023-03-21T14:42:03.339Z,1.42
2023-03-21T14:44:47.581Z,1.58
2023-03-21T14:47:25.286Z,1.50
2023-03-21T14:49:54.289Z,1.35
2023-03-21T14:52:26.360Z,1.60
2023-03-21T14:54:55.896Z,1.30
2023-03-21T14:57:28.137Z,1.42
2023-03-21T15:00:00.181Z,1.30
2023-03-21T15:02:34.639Z,1.42
2023-03-21T15:05:11.428Z,1.30
2023-03-21T15:07:39.526Z,1.00
2023-03-21T15:10:18.340Z,1.13
2023-03-21T15:12:54.710Z,1.40
2023-03-21T15:15:36.583Z,1.40
2023-03-21T15:18:07.911Z,1.50
2023-03-21T15:20:39.368Z,1.30
2023-03-21T15:23:13.434Z,1.33
2023-03-21T15:25:42.280Z,1.33
2023-03-21T15:28:14.168Z,1.30
2023-03-21T15:30:50.053Z,1.10
2023-03-21T15:33:20.916Z,1.25
2023-03-21T15:35:56.038Z,1.00
2023-03-21T15:38:30.161Z,1.45
2023-03-21T15:41:26.667Z,1.50
2023-03-21T15:44:03.284Z,1.65
2023-03-21T15:46:41.614Z,1.50
2023-03-21T15:49:19.521Z,1.70
2023-03-21T15:51:51.086Z,1.40
2023-03-21T15:54:24.644Z,1.30
2023-03-21T15:56:56.421Z,1.60
2023-03-21T15:59:27.494Z,1.55
2023-03-21T16:01:55.646Z,1.50
2023-03-21T16:04:26.211Z,1.40
2023-03-21T16:07:00.104Z,1.30
2023-03-21T16:09:28.301Z,1.15
2023-03-21T16:11:58.761Z,1.27
2023-03-21T16:14:28.967Z,1.38
2023-03-21T16:16:59.063Z,1.73
2023-03-21T16:19:29.907Z,1.85
2023-03-21T16:21:58.033Z,2.22
2023-03-21T16:24:26.234Z,2.20
2023-03-21T16:26:55.583Z,2.25
2023-03-21T16:29:23.696Z,2.05
2023-03-21T16:31:52.069Z,1.73
2023-03-21T16:34:20.128Z,2.00
2023-03-21T16:36:49.647Z,1.73
2023-03-21T16:39:20.359Z,1.90
2023-03-21T16:41:49.588Z,1.98
2023-03-21T16:44:18.242Z,1.98
2023-03-21T16:46:47.218Z,1.77
2023-03-21T16:49:21.513Z,2.08
2023-03-21T16:51:51.036Z,2.00
2023-03-21T16:54:19.112Z,1.98
2023-03-21T16:56:50.837Z,2.40
2023-03-21T16:59:19.065Z,2.00
2023-03-21T17:01:48.523Z,2.20
2023-03-21T17:04:17.994Z,2.42
2023-03-21T17:06:48.544Z,2.50
2023-03-21T17:09:21.173Z,2.60
2023-03-21T17:11:51.405Z,2.40
2023-03-21T17:14:21.508Z,2.30
2023-03-21T17:16:49.697Z,2.67
2023-03-21T17:19:20.513Z,2.88
2023-03-21T17:21:48.621Z,2.60
2023-03-21T17:24:18.520Z,2.40
2023-03-21T17:26:46.631Z,2.80
2023-03-21T17:29:16.200Z,2.90
2023-03-21T17:31:47.463Z,2.38
2023-03-21T17:34:15.630Z,2.50
2023-03-21T17:36:45.055Z,2.70
2023-03-21T17:39:20.162Z,2.80
2023-03-21T17:41:48.278Z,2.50
2023-03-21T17:44:17.615Z,2.70
2023-03-21T17:46:45.729Z,2.65
2023-03-21T17:49:17.353Z,2.30
2023-03-21T17:51:47.031Z,2.65
2023-03-21T17:54:15.766Z,2.85
2023-03-21T17:56:45.321Z,2.60
2023-03-21T17:59:15.457Z,2.60
2023-03-21T18:01:43.891Z,3.33
2023-03-21T18:04:12.000Z,3.20
2023-03-21T18:06:41.001Z,2.90
2023-03-21T18:09:11.746Z,3.00
2023-03-21T18:11:41.864Z,3.05
2023-03-21T18:14:18.198Z,3.22
2023-03-21T18:16:47.559Z,4.18
2023-03-21T18:19:15.645Z,4.10
2023-03-21T18:21:45.312Z,3.60
2023-03-21T18:24:14.792Z,3.40
2023-03-21T18:26:43.253Z,3.20
2023-03-21T18:32:08.248Z,2.58
2023-03-21T18:34:38.152Z,2.83
2023-03-21T18:37:07.989Z,2.75
2023-03-21T18:39:36.646Z,2.90
2023-03-21T18:42:06.426Z,2.50
2023-03-21T18:44:39.290Z,2.80
2023-03-21T18:47:08.540Z,2.50
2023-03-21T18:52:26.440Z,2.53
2023-03-21T18:54:54.820Z,3.00
2023-03-21T18:57:37.508Z,2.83
2023-03-21T19:00:13.586Z,2.60
2023-03-21T19:02:46.285Z,2.75
2023-03-21T19:05:16.607Z,2.92
2023-03-21T19:07:45.157Z,3.08
2023-03-21T19:10:19.439Z,3.10
2023-03-21T19:12:49.341Z,3.17
2023-03-21T19:15:21.995Z,2.92
2023-03-21T19:20:44.019Z,2.95
2023-03-21T19:23:12.069Z,3.10
2023-03-21T19:25:40.618Z,3.30
2023-03-21T19:28:10.221Z,3.35
2023-03-21T19:30:48.993Z,3.92
2023-03-21T19:33:19.023Z,4.10
2023-03-21T19:35:47.142Z,3.92
2023-03-21T19:38:15.406Z,4.25
2023-03-21T19:40:44.033Z,3.95
2023-03-21T19:43:31.580Z,3.65
2023-03-21T19:46:02.022Z,3.85
2023-03-21T19:48:30.819Z,3.75
2023-03-21T19:53:51.146Z,3.90
2023-03-21T19:56:23.158Z,3.60
2023-03-21T19:58:54.945Z,3.97
2023-03-21T20:01:25.727Z,4.20
2023-03-21T20:03:54.062Z,3.45
2023-03-21T20:06:23.983Z,3.95
2023-03-21T20:11:42.087Z,3.97
2023-03-21T20:14:10.193Z,3.80
2023-03-21T20:16:43.304Z,4.25
2023-03-21T20:19:16.448Z,3.50
2023-03-21T20:21:52.905Z,3.58
2023-03-21T20:24:25.345Z,3.88
2023-03-21T20:26:54.950Z,3.65
2023-03-21T20:32:14.483Z,4.03
2023-03-21T20:34:44.577Z,4.78
2023-03-21T20:37:13.548Z,4.25
2023-03-21T20:39:42.964Z,3.67
2023-03-21T20:42:11.208Z,3.20
2023-03-21T20:44:56.705Z,3.45
2023-03-21T20:47:27.779Z,3.50
2023-03-21T20:49:56.864Z,3.50
2023-03-21T20:55:15.126Z,3.20
2023-03-21T20:57:44.336Z,2.90
2023-03-21T21:00:16.798Z,3.17
2023-03-21T21:02:49.002Z,4.15
2023-03-21T21:05:30.614Z,4.00
2023-03-21T21:08:01.273Z,4.28
2023-03-21T21:10:29.673Z,4.47
2023-03-21T21:12:58.224Z,4.20
2023-03-21T21:15:26.398Z,4.40
2023-03-21T21:18:06.062Z,4.10
2023-03-21T21:20:35.895Z,3.60
2023-03-21T21:23:04.829Z,4.00
2023-03-21T21:25:34.880Z,4.07
2023-03-21T21:28:03.921Z,4.43
2023-03-21T21:30:33.641Z,3.97
2023-03-21T21:33:04.991Z,4.65
2023-03-21T21:35:33.815Z,4.68
2023-03-21T21:38:02.430Z,5.00
2023-03-21T21:40:30.999Z,5.35
2023-03-21T21:43:03.475Z,5.50
2023-03-21T21:45:32.408Z,4.85
2023-03-21T21:48:02.204Z,4.40
2023-03-21T21:50:30.276Z,5.28
2023-03-21T21:53:04.165Z,4.72
2023-03-21T21:55:32.730Z,4.72
2023-03-21T21:58:01.427Z,4.80
2023-03-21T22:00:32.326Z,4.55
2023-03-21T22:03:02.927Z,4.88
2023-03-21T22:05:31.178Z,5.50
2023-03-21T22:07:59.621Z,5.80
2023-03-21T22:10:28.429Z,5.75
2023-03-21T22:12:56.957Z,5.28
2023-03-21T22:15:25.156Z,6.55
2023-03-21T22:17:54.041Z,6.57
2023-03-21T22:20:23.877Z,6.03
2023-03-21T22:22:52.864Z,6.72
2023-03-21T22:25:21.478Z,6.30
2023-03-21T22:27:49.587Z,5.57
2023-03-21T22:30:19.068Z,6.45
2023-03-21T22:33:02.565Z,8.93
2023-03-21T22:35:38.294Z,6.22
2023-03-21T22:38:06.861Z,5.65
2023-03-21T22:40:35.398Z,4.90
2023-03-21T22:43:03.462Z,5.13
2023-03-21T22:45:32.856Z,5.07
2023-03-21T22:48:01.165Z,5.32
2023-03-21T22:50:29.984Z,5.07
2023-03-21T22:52:59.471Z,5.00
2023-03-21T22:55:28.088Z,4.55
2023-03-21T22:57:56.188Z,4.80
2023-03-21T23:00:24.765Z,4.88
2023-03-21T23:02:53.274Z,4.28
2023-03-21T23:05:21.330Z,4.20
2023-03-21T23:07:49.889Z,4.28
2023-03-21T23:10:19.595Z,4.57
2023-03-21T23:12:47.728Z,4.43
2023-03-21T23:15:15.933Z,4.20
2023-03-21T23:17:45.064Z,4.20
2023-03-21T23:20:14.139Z,4.35
2023-03-21T23:22:43.153Z,4.53
2023-03-21T23:25:12.424Z,4.18
2023-03-21T23:27:42.308Z,4.63
2023-03-21T23:30:10.929Z,4.30
2023-03-21T23:32:39.531Z,4.07
2023-03-21T23:35:09.308Z,4.13
2023-03-21T23:37:37.613Z,4.38
2023-03-21T23:40:07.650Z,4.50
2023-03-21T23:42:36.329Z,4.97
2023-03-21T23:45:07.161Z,4.63
2023-03-21T23:47:35.257Z,4.60
2023-03-21T23:50:07.361Z,4.47
2023-03-21T23:52:36.017Z,4.00
2023-03-21T23:55:04.347Z,4.30
2023-03-21T23:57:33.105Z,4.30
